Mechanic, Ohio
Current Conditions -  °F | °C
As of 7:53 AM on Tuesday 21 Oct 2014 (Local Time) from KPHD Reporting Station
Haze Haze  
Wind Chill: 52°   Ceiling: 1000
Heat Index: 52°   Visibility: 4mi
Dew Point: 50°   Wind: 0mph
Humidity: 93%   Direction: NA
Pressure: 29.88"   Gusts: NA
Location:  40.4489°N, 81.6949°W
Report Text: KPHD 211153Z AUTO 00000KT 4SM BR BKN010 OVC016 11/10 A2988 RMK AO2 CIG 008V012 SLP119 70020 T01110100 10111 20100 53005
Loading
Personal Weather Stations






























Interactive Weather Map
Tropical Storm Tracking
New forecast layout! Learn more

10-Day Weather Forecast

Advertisements
Track Severe Weather on mobile